Flight Track Log - Related Links

Times and Time Zones

All times are in EDT time to prevent confusion due to time zone crossing. See the SWA471 flight status page for this flight to view local times or setup timezone preferences in your user account.

Time Position Orientation Groundspeed Altitude Reporting Facility
EDT Latitude Longitude Course Direction KTS MPH feet Rate Location/Type
Tue 06:03:51 PM 39.1333 -76.6667 211° Southwest 191 220 1,500  Level Potomac TRACON
Tue 06:04:45 PM 39.1500 -76.7167 293° West 237 273 4,300 3,026 Climbing Potomac TRACON
Tue 06:05:46 PM 39.1667 -76.7833 288° West 231 266 7,300 1,835 Climbing Potomac TRACON
Tue 06:06:46 PM 39.1833 -76.8833 282° West 267 307 8,000 1,000 Climbing Potomac TRACON
Tue 06:07:52 PM 39.2000 -76.9833 282° West 260 299 9,400 1,900 Climbing Potomac TRACON
Tue 06:08:46 PM 39.2000 -77.0667 270° West 284 327 11,800 2,400 Climbing Potomac TRACON
Tue 06:09:00 PM 39.0501 -77.2703 211° Southwest  Level FlightAware Approximate
Tue 06:09:47 PM 39.1833 -77.1833 260° West 327 376 14,000  Level Potomac TRACON
Tue 06:10:53 PM 39.0833 -77.2667 213° Southwest 364 419 16,300 2,048 Climbing Potomac TRACON
Tue 06:11:53 PM 39.0000 -77.3333 212° Southwest 392 451 18,300 1,895 Climbing Potomac TRACON
Tue 06:14:22 PM 38.9456 -77.6708 258° West 397 457 22,900 1,923 Climbing Washington Center
Tue 06:15:22 PM 38.9222 -77.8117 258° West 403 464 25,000 1,800 Climbing Washington Center
Tue 06:16:22 PM 38.8989 -77.9417 257° West 412 474 26,500 1,800 Climbing Washington Center
Tue 06:17:22 PM 38.8750 -78.0822 258° West 412 474 28,600 2,150 Climbing Washington Center
Tue 06:18:22 PM 38.8536 -78.2172 259° West 402 463 30,800 1,750 Climbing Washington Center
Tue 06:19:22 PM 38.8528 -78.3478 270° West 388 447 32,100 1,250 Climbing Washington Center
Tue 06:20:22 PM 38.8517 -78.4811 269° West 378 435 33,300 950 Climbing Washington Center
Tue 06:21:22 PM 38.8506 -78.6092 269° West 373 429 34,000 350 Climbing Washington Center
Tue 06:22:22 PM 38.8492 -78.7397 269° West 373 429 34,000  Level Washington Center
Tue 06:23:22 PM 38.8481 -78.8675 269° West 368 423 34,000  Level Washington Center
Tue 06:24:22 PM 38.8464 -79.0008 269° West 368 423 34,000  Level Washington Center
Tue 06:25:22 PM 38.8428 -79.1286 268° West 368 423 34,000  Level Washington Center
Tue 06:26:22 PM 38.8411 -79.2536 269° West 363 418 34,000  Level Washington Center
Tue 06:27:22 PM 38.8392 -79.3817 269° West 363 418 34,000  Level Washington Center
Tue 06:28:22 PM 38.8372 -79.5094 269° West 363 418 34,000  Level Washington Center
Tue 06:29:22 PM 38.8347 -79.6453 269° West 370 426 34,000  Level Washington Center
Tue 06:30:22 PM 38.8317 -79.7917 269° West 379 436 34,000  Level Washington Center
Tue 06:31:22 PM 38.8269 -79.9219 267° West 374 430 34,000  Level Washington Center
Tue 06:32:22 PM 38.8242 -80.0578 269° West 374 430 34,000  Level Washington Center
Tue 06:33:40 PM 38.8169 -80.2111 267° West 370 426 34,000  Level Indianapolis Center
Tue 06:34:42 PM 38.8133 -80.3458 268° West 377 434 34,000  Level Indianapolis Center
Tue 06:35:44 PM 38.8103 -80.4792 268° West 375 432 34,000  Level Indianapolis Center
Tue 06:36:46 PM 38.8058 -80.6131 268° West 375 432 34,000  Level Indianapolis Center
Tue 06:37:48 PM 38.8022 -80.7736 268° West 376 433 34,000  Level Indianapolis Center
Tue 06:38:50 PM 38.7964 -80.9056 267° West 370 426 34,000  Level Indianapolis Center
Tue 06:39:52 PM 38.7922 -81.0381 268° West 372 428 34,000  Level Indianapolis Center
Tue 06:40:54 PM 38.7878 -81.1700 268° West 371 427 34,000  Level Indianapolis Center
Tue 06:41:56 PM 38.7836 -81.3022 268° West 372 428 34,000  Level Indianapolis Center
Tue 06:42:58 PM 38.7775 -81.4567 267° West 374 430 34,000  Level Indianapolis Center
Tue 06:44:00 PM 38.7722 -81.5894 267° West 373 429 34,000  Level Indianapolis Center
Tue 06:45:02 PM 38.7678 -81.7192 268° West 375 432 34,000  Level Indianapolis Center
Tue 06:46:04 PM 38.7619 -81.8508 267° West 374 430 34,000  Level Indianapolis Center
Tue 06:47:06 PM 38.7564 -81.9833 267° West 372 428 34,000  Level Indianapolis Center
Tue 06:48:08 PM 38.7500 -82.1425 267° West 376 433 34,000  Level Indianapolis Center
Tue 06:49:10 PM 38.7456 -82.2764 268° West 377 434 34,000  Level Indianapolis Center
Tue 06:50:12 PM 38.7400 -82.4103 267° West 377 434 34,000  Level Indianapolis Center
Tue 06:51:14 PM 38.7342 -82.5447 267° West 378 435 34,000  Level Indianapolis Center
Tue 06:52:16 PM 38.7289 -82.6786 267° West 377 434 34,000  Level Indianapolis Center
Tue 06:53:18 PM 38.7242 -82.8125 267° West 377 434 34,000  Level Indianapolis Center
Tue 06:54:20 PM 38.7164 -82.9728 266° West 377 434 34,000  Level Indianapolis Center
Tue 06:55:22 PM 38.7103 -83.1094 267° West 383 441 34,000  Level Indianapolis Center
Tue 06:56:24 PM 38.7042 -83.2314 266° West 378 435 34,000  Level Indianapolis Center
Tue 06:57:26 PM 38.6978 -83.3686 267° West 382 440 34,000  Level Indianapolis Center
Tue 06:58:28 PM 38.6900 -83.5283 266° West 382 440 34,000  Level Indianapolis Center
Tue 06:59:30 PM 38.6836 -83.6661 267° West 382 440 34,000  Level Indianapolis Center
Tue 07:00:32 PM 38.6767 -83.8042 266° West 383 441 34,000  Level Indianapolis Center
Tue 07:01:33 PM 38.6797 -83.9419 272° West 384 442 34,000  Level Indianapolis Center
Tue 07:02:35 PM 38.6886 -84.0789 275° West 385 443 34,000  Level Indianapolis Center
Tue 07:03:37 PM 38.6953 -84.2167 274° West 383 441 34,000 194 Level Indianapolis Center
Tue 07:04:39 PM 38.7025 -84.3528 274° West 381 438 34,400 726 Climbing Indianapolis Center
Tue 07:05:41 PM 38.7089 -84.4889 273° West 378 435 35,500 774 Climbing Indianapolis Center
Tue 07:06:43 PM 38.7158 -84.6311 274° West 371 427 36,000 242 Climbing Indianapolis Center
Tue 07:07:45 PM 38.7228 -84.7644 274° West 373 429 36,000  Level Indianapolis Center
Tue 07:08:47 PM 38.7292 -84.8989 274° West 375 432 36,000  Level Indianapolis Center
Tue 07:09:49 PM 38.7369 -85.0547 274° West 375 432 36,000  Level Indianapolis Center
Tue 07:10:51 PM 38.7425 -85.1889 273° West 375 432 36,000  Level Indianapolis Center
Tue 07:11:53 PM 38.7489 -85.3219 274° West 373 429 36,000  Level Indianapolis Center
Tue 07:12:55 PM 38.7536 -85.4544 273° West 372 428 36,000  Level Indianapolis Center
Tue 07:13:57 PM 38.7600 -85.5886 274° West 373 429 36,000  Level Indianapolis Center
Tue 07:14:58 PM 38.7658 -85.7239 273° West 377 434 36,000  Level Indianapolis Center
Tue 07:16:00 PM 38.7700 -85.8578 272° West 376 433 36,000  Level Indianapolis Center
Tue 07:17:02 PM 38.7769 -86.0092 273° West 377 434 36,000  Level Indianapolis Center
Tue 07:18:04 PM 38.7817 -86.1436 273° West 378 435 36,000  Level Indianapolis Center
Tue 07:19:06 PM 38.7867 -86.2772 273° West 376 433 36,000  Level Indianapolis Center
Tue 07:20:08 PM 38.7914 -86.4103 273° West 376 433 36,000  Level Indianapolis Center
Tue 07:21:10 PM 38.7953 -86.5439 272° West 376 433 36,000  Level Indianapolis Center
Tue 07:22:12 PM 38.8000 -86.6786 273° West 379 436 36,000  Level Indianapolis Center
Tue 07:23:14 PM 38.8056 -86.8392 273° West 377 434 36,000  Level Indianapolis Center
Tue 07:24:15 PM 38.8097 -86.9717 272° West 375 432 36,000  Level Indianapolis Center
Tue 07:25:17 PM 38.8136 -87.1047 272° West 374 430 36,000  Level Indianapolis Center
Tue 07:26:19 PM 38.8167 -87.2372 272° West 373 429 36,000  Level Indianapolis Center
Tue 07:27:21 PM 38.8203 -87.3700 272° West 374 430 36,000  Level Indianapolis Center
Tue 07:28:23 PM 38.8239 -87.5036 272° West 374 430 36,000  Level Indianapolis Center
Tue 07:29:24 PM 38.8269 -87.6353 272° West 372 428 36,000  Level Indianapolis Center
Tue 07:30:26 PM 38.8306 -87.7953 272° West 373 429 36,000  Level Indianapolis Center
Tue 07:31:28 PM 38.8336 -87.9264 272° West 371 427 36,000  Level Indianapolis Center
Tue 07:31:59 PM 38.8350 -87.9803 272° West 370 426 36,000  Level Kansas City Center
Tue 07:33:00 PM 38.8369 -88.1128 271° West 371 427 36,000  Level Kansas City Center
Tue 07:34:02 PM 38.8419 -88.2436 273° West 368 423 36,000  Level Kansas City Center
Tue 07:35:03 PM 38.8661 -88.3711 284° West 366 421 36,000  Level Kansas City Center
Tue 07:36:06 PM 38.9017 -88.5194 287° West 362 417 36,000  Level Kansas City Center
Tue 07:37:07 PM 38.9536 -88.6322 301° West 361 415 36,000  Level Kansas City Center
Tue 07:38:08 PM 38.9986 -88.7272 301° West 365 420 36,000  Level Kansas City Center
Tue 07:39:11 PM 39.0603 -88.8606 301° West 363 418 36,000  Level Kansas City Center
Tue 07:40:11 PM 39.1147 -88.9792 301° West 363 418 36,000  Level Kansas City Center
Tue 07:41:13 PM 39.1519 -89.0972 292° West 359 413 36,000  Level Kansas City Center
Tue 07:42:14 PM 39.1781 -89.2114 286° West 359 413 36,000  Level Kansas City Center
Tue 07:43:18 PM 39.2056 -89.3328 286° West 357 411 36,000  Level Kansas City Center
Tue 07:44:19 PM 39.2294 -89.4658 283° West 354 407 36,000  Level Kansas City Center
Tue 07:45:20 PM 39.2494 -89.6069 280° West 358 412 36,000  Level Kansas City Center
Tue 07:46:23 PM 39.2683 -89.7306 281° West 356 410 36,000  Level Kansas City Center
Tue 07:47:25 PM 39.2881 -89.8561 282° West 358 412 36,000  Level Kansas City Center
Tue 07:48:26 PM 39.3069 -89.9825 281° West 360 414 36,000  Level Kansas City Center
Tue 07:49:27 PM 39.3261 -90.1086 281° West 360 414 36,000  Level Kansas City Center
Tue 07:50:29 PM 39.3442 -90.2344 281° West 360 414 36,000  Level Kansas City Center
Tue 07:51:30 PM 39.3664 -90.3869 281° West 362 417 36,000  Level Kansas City Center
Tue 07:52:31 PM 39.3850 -90.5128 281° West 361 415 36,000  Level Kansas City Center
Tue 07:53:33 PM 39.4036 -90.6394 281° West 361 415 36,000  Level Kansas City Center
Tue 07:54:34 PM 39.4211 -90.7656 280° West 359 413 36,000  Level Kansas City Center
Tue 07:55:36 PM 39.4397 -90.8922 281° West 360 414 36,000  Level Kansas City Center
Tue 07:56:38 PM 39.4556 -91.0194 279° West 360 414 36,000  Level Kansas City Center
Tue 07:57:41 PM 39.4619 -91.1467 274° West 356 410 36,000  Level Kansas City Center
Tue 07:58:42 PM 39.4736 -91.2947 276° West 350 403 36,000  Level Kansas City Center
Tue 07:59:44 PM 39.4822 -91.4192 275° West 349 402 36,000  Level Kansas City Center
Tue 08:00:45 PM 39.4908 -91.5419 275° West 346 398 36,000  Level Kansas City Center
Tue 08:01:46 PM 39.4994 -91.6642 275° West 344 396 36,000  Level Kansas City Center
Tue 08:02:47 PM 39.5097 -91.8006 276° West 342 394 36,000  Level Kansas City Center
Tue 08:03:51 PM 39.5175 -91.9222 275° West 341 392 36,000  Level Kansas City Center
Tue 08:04:51 PM 39.5261 -92.0439 275° West 341 392 36,000  Level Kansas City Center
Tue 08:05:52 PM 39.5339 -92.1661 275° West 340 391 36,000  Level Kansas City Center
Tue 08:06:56 PM 39.5414 -92.2883 275° West 341 392 36,000  Level Kansas City Center
Tue 08:07:56 PM 39.5492 -92.4100 275° West 340 391 36,000  Level Kansas City Center
Tue 08:08:59 PM 39.5567 -92.5306 275° West 340 391 36,000  Level Kansas City Center
Tue 08:10:00 PM 39.5650 -92.6764 274° West 338 389 36,000  Level Kansas City Center
Tue 08:11:01 PM 39.5722 -92.7975 274° West 338 389 36,000  Level Kansas City Center
Tue 08:12:04 PM 39.5797 -92.9189 275° West 340 391 36,000  Level Kansas City Center
Tue 08:13:04 PM 39.5867 -93.0397 274° West 338 389 36,000 -446 Level Kansas City Center
Tue 08:14:05 PM 39.5922 -93.1603 273° West 338 389 35,100 -1,951 Descending Kansas City Center
Tue 08:15:07 PM 39.6000 -93.2808 275° West 336 387 32,000 -2,806 Descending Kansas City Center
Tue 08:16:09 PM 39.6053 -93.4011 273° West 336 387 29,300 -2,571 Descending Kansas City Center
Tue 08:17:13 PM 39.6133 -93.5403 274° West 327 376 26,600 -2,304 Descending Kansas City Center
Tue 08:18:14 PM 39.6200 -93.6550 274° West 322 371 24,500 -2,066 Descending Kansas City Center
Tue 08:19:15 PM 39.6247 -93.7647 273° West 324 373 22,400 -2,231 Descending Kansas City Center
Tue 08:20:15 PM 39.6258 -93.8881 271° West 309 356 20,000 -2,146 Descending Kansas City Center
Tue 08:21:18 PM 39.5789 -93.9786 236° Southwest 311 358 18,000 -2,098 Descending Kansas City Center
Tue 08:22:18 PM 39.5250 -94.0842 237° Southwest 313 360 15,700 -2,098 Descending Kansas City Center
Tue 08:23:21 PM 39.4817 -94.1700 237° Southwest 299 344 13,700 -1,790 Descending Kansas City Center
Tue 08:24:22 PM 39.4400 -94.2517 237° Southwest 287 330 12,000 -836 Descending Kansas City Center
Tue 08:25:23 PM 39.3967 -94.3375 237° Southwest 256 295 12,000  Level Kansas City Center
Tue 08:26:27 PM 39.3589 -94.4122 237° Southwest 259 298 12,000 -480 Level Kansas City Center
Tue 08:27:28 PM 39.3158 -94.4953 236° Southwest 249 287 11,000 -1,190 Descending Kansas City Center
Tue 08:28:28 PM 39.2836 -94.5594 237° Southwest 226 260 9,600 -1,415 Descending Kansas City Center
Tue 08:29:31 PM 39.2417 -94.6136 225° Southwest 228 262 8,100 -1,694 Descending Kansas City Center
Tue 08:30:32 PM 39.1786 -94.6619 211° Southwest 237 273 6,100 -1,500 Descending Kansas City Center
Tue 08:31:35 PM 39.1578 -94.7214 246° West 215 247 5,000 -1,161 Descending Kansas City Center
Tue 08:32:36 PM 39.1947 -94.7333 346° North 125 144 3,700 -1,328 Descending Kansas City Center
Tue 08:33:37 PM 39.2258 -94.7267 North 119 137 2,300 -1,082 Descending Kansas City Center
Tue 08:34:38 PM 39.2636 -94.7150 13° North 126 145 1,500 -585 Descending Kansas City Center
Tue 08:35:40 PM 39.2956 -94.7064 12° North 126 145 1,100 -387 Descending Kansas City Center

Login

Don't have an account? Register now (free) for customized features, flight alerts, and more!